sensor_id;sensor_type;location;lat;lon;timestamp;temperature;humidity
25718;DHT22;13574;52.040;5.692;2023-07-08T00:00:43;23.50;83.70
25718;DHT22;13574;52.040;5.692;2023-07-08T00:03:09;23.60;83.50
25718;DHT22;13574;52.040;5.692;2023-07-08T00:05:35;23.60;83.50
25718;DHT22;13574;52.040;5.692;2023-07-08T00:08:04;23.50;83.20
25718;DHT22;13574;52.040;5.692;2023-07-08T00:10:30;23.60;83.60
25718;DHT22;13574;52.040;5.692;2023-07-08T00:12:57;23.60;83.50
25718;DHT22;13574;52.040;5.692;2023-07-08T00:15:29;23.50;83.90
25718;DHT22;13574;52.040;5.692;2023-07-08T00:17:59;23.30;84.20
25718;DHT22;13574;52.040;5.692;2023-07-08T00:20:43;23.50;84.10
25718;DHT22;13574;52.040;5.692;2023-07-08T00:23:14;23.60;84.10
25718;DHT22;13574;52.040;5.692;2023-07-08T00:25:41;23.60;84.00
25718;DHT22;13574;52.040;5.692;2023-07-08T00:28:17;23.50;84.20
25718;DHT22;13574;52.040;5.692;2023-07-08T00:30:43;23.60;83.90
25718;DHT22;13574;52.040;5.692;2023-07-08T00:33:11;23.50;84.00
25718;DHT22;13574;52.040;5.692;2023-07-08T00:35:42;23.30;84.50
25718;DHT22;13574;52.040;5.692;2023-07-08T00:38:25;23.30;84.40
25718;DHT22;13574;52.040;5.692;2023-07-08T00:43:39;23.20;84.70
25718;DHT22;13574;52.040;5.692;2023-07-08T00:51:50;23.30;85.10
25718;DHT22;13574;52.040;5.692;2023-07-08T00:54:18;23.10;85.50
25718;DHT22;13574;52.040;5.692;2023-07-08T00:59:22;23.00;85.70
25718;DHT22;13574;52.040;5.692;2023-07-08T01:01:50;23.10;85.70
25718;DHT22;13574;52.040;5.692;2023-07-08T01:04:25;23.10;85.70
25718;DHT22;13574;52.040;5.692;2023-07-08T01:06:57;23.10;86.20
25718;DHT22;13574;52.040;5.692;2023-07-08T01:09:30;23.00;87.20
25718;DHT22;13574;52.040;5.692;2023-07-08T01:12:02;23.00;86.00
25718;DHT22;13574;52.040;5.692;2023-07-08T01:14:31;22.90;86.30
25718;DHT22;13574;52.040;5.692;2023-07-08T01:17:01;22.80;86.40
25718;DHT22;13574;52.040;5.692;2023-07-08T01:19:30;22.60;87.40
25718;DHT22;13574;52.040;5.692;2023-07-08T01:22:03;22.80;86.90
25718;DHT22;13574;52.040;5.692;2023-07-08T01:24:31;22.80;87.10
25718;DHT22;13574;52.040;5.692;2023-07-08T01:26:59;22.80;86.90
25718;DHT22;13574;52.040;5.692;2023-07-08T01:29:27;22.70;87.30
25718;DHT22;13574;52.040;5.692;2023-07-08T01:31:55;22.50;87.60
25718;DHT22;13574;52.040;5.692;2023-07-08T01:34:21;22.40;87.80
25718;DHT22;13574;52.040;5.692;2023-07-08T01:36:53;22.60;87.80
25718;DHT22;13574;52.040;5.692;2023-07-08T01:39:21;22.70;88.00
25718;DHT22;13574;52.040;5.692;2023-07-08T01:41:48;22.60;87.80
25718;DHT22;13574;52.040;5.692;2023-07-08T01:44:35;22.50;88.40
25718;DHT22;13574;52.040;5.692;2023-07-08T01:47:07;22.50;88.00
25718;DHT22;13574;52.040;5.692;2023-07-08T01:49:35;22.60;88.10
25718;DHT22;13574;52.040;5.692;2023-07-08T01:52:06;22.60;88.50
25718;DHT22;13574;52.040;5.692;2023-07-08T01:54:35;22.40;88.20
25718;DHT22;13574;52.040;5.692;2023-07-08T01:57:01;22.50;88.10
25718;DHT22;13574;52.040;5.692;2023-07-08T01:59:28;22.10;88.70
25718;DHT22;13574;52.040;5.692;2023-07-08T02:01:54;22.00;89.50
25718;DHT22;13574;52.040;5.692;2023-07-08T02:04:23;22.00;89.50
25718;DHT22;13574;52.040;5.692;2023-07-08T02:06:58;21.90;89.90
25718;DHT22;13574;52.040;5.692;2023-07-08T02:09:24;21.90;89.90
25718;DHT22;13574;52.040;5.692;2023-07-08T02:11:55;21.80;90.00
25718;DHT22;13574;52.040;5.692;2023-07-08T02:14:21;21.90;90.00
25718;DHT22;13574;52.040;5.692;2023-07-08T02:16:47;21.70;90.30
25718;DHT22;13574;52.040;5.692;2023-07-08T02:19:13;21.50;90.50
25718;DHT22;13574;52.040;5.692;2023-07-08T02:21:41;21.70;90.50
25718;DHT22;13574;52.040;5.692;2023-07-08T02:24:07;21.40;90.60
25718;DHT22;13574;52.040;5.692;2023-07-08T02:26:33;21.40;90.80
25718;DHT22;13574;52.040;5.692;2023-07-08T02:28:59;21.60;90.70
25718;DHT22;13574;52.040;5.692;2023-07-08T02:31:25;21.50;90.70
25718;DHT22;13574;52.040;5.692;2023-07-08T02:33:58;21.40;90.80
25718;DHT22;13574;52.040;5.692;2023-07-08T02:36:25;21.30;90.80
25718;DHT22;13574;52.040;5.692;2023-07-08T02:38:56;21.30;91.10
25718;DHT22;13574;52.040;5.692;2023-07-08T02:41:24;21.30;91.10
25718;DHT22;13574;52.040;5.692;2023-07-08T02:43:51;21.30;91.10
25718;DHT22;13574;52.040;5.692;2023-07-08T02:46:17;21.50;91.00
25718;DHT22;13574;52.040;5.692;2023-07-08T02:48:43;21.40;91.10
25718;DHT22;13574;52.040;5.692;2023-07-08T02:51:08;21.30;91.10
25718;DHT22;13574;52.040;5.692;2023-07-08T02:53:35;21.50;91.20
25718;DHT22;13574;52.040;5.692;2023-07-08T02:56:01;21.40;91.30
25718;DHT22;13574;52.040;5.692;2023-07-08T02:58:27;21.30;91.40
25718;DHT22;13574;52.040;5.692;2023-07-08T03:00:53;21.30;91.20
25718;DHT22;13574;52.040;5.692;2023-07-08T03:03:19;21.40;91.40
25718;DHT22;13574;52.040;5.692;2023-07-08T03:05:55;21.50;91.30
25718;DHT22;13574;52.040;5.692;2023-07-08T03:08:21;21.30;91.50
25718;DHT22;13574;52.040;5.692;2023-07-08T03:10:58;21.20;91.60
25718;DHT22;13574;52.040;5.692;2023-07-08T03:13:25;21.10;91.80
25718;DHT22;13574;52.040;5.692;2023-07-08T03:15:53;21.30;91.60
25718;DHT22;13574;52.040;5.692;2023-07-08T03:18:21;21.20;91.60
25718;DHT22;13574;52.040;5.692;2023-07-08T03:20:49;21.20;91.70
25718;DHT22;13574;52.040;5.692;2023-07-08T03:23:14;21.00;92.00
25718;DHT22;13574;52.040;5.692;2023-07-08T03:25:40;21.20;91.90
25718;DHT22;13574;52.040;5.692;2023-07-08T03:28:06;21.40;91.70
25718;DHT22;13574;52.040;5.692;2023-07-08T03:30:40;20.90;92.00
25718;DHT22;13574;52.040;5.692;2023-07-08T03:33:05;21.20;92.00
25718;DHT22;13574;52.040;5.692;2023-07-08T03:35:31;21.30;92.00
25718;DHT22;13574;52.040;5.692;2023-07-08T03:37:57;21.40;91.90
25718;DHT22;13574;52.040;5.692;2023-07-08T03:40:23;21.00;92.10
25718;DHT22;13574;52.040;5.692;2023-07-08T03:42:48;21.30;92.20
25718;DHT22;13574;52.040;5.692;2023-07-08T03:45:14;21.10;92.40
25718;DHT22;13574;52.040;5.692;2023-07-08T03:47:40;20.90;92.40
25718;DHT22;13574;52.040;5.692;2023-07-08T03:50:22;20.80;92.70
25718;DHT22;13574;52.040;5.692;2023-07-08T03:52:52;21.10;92.40
25718;DHT22;13574;52.040;5.692;2023-07-08T03:55:19;21.10;92.40
25718;DHT22;13574;52.040;5.692;2023-07-08T03:57:45;20.90;92.60
25718;DHT22;13574;52.040;5.692;2023-07-08T04:00:11;21.00;92.60
25718;DHT22;13574;52.040;5.692;2023-07-08T04:02:39;20.90;92.70
25718;DHT22;13574;52.040;5.692;2023-07-08T04:05:10;21.00;92.70
25718;DHT22;13574;52.040;5.692;2023-07-08T04:07:38;20.90;92.70
25718;DHT22;13574;52.040;5.692;2023-07-08T04:10:07;21.00;92.60
25718;DHT22;13574;52.040;5.692;2023-07-08T04:12:33;20.90;93.20
25718;DHT22;13574;52.040;5.692;2023-07-08T04:14:58;20.90;93.20
25718;DHT22;13574;52.040;5.692;2023-07-08T04:17:24;20.90;93.00
25718;DHT22;13574;52.040;5.692;2023-07-08T04:19:50;21.00;93.00
25718;DHT22;13574;52.040;5.692;2023-07-08T04:22:16;20.90;93.10
25718;DHT22;13574;52.040;5.692;2023-07-08T04:24:42;20.90;93.00
25718;DHT22;13574;52.040;5.692;2023-07-08T04:27:15;20.80;93.20
25718;DHT22;13574;52.040;5.692;2023-07-08T04:29:41;21.00;93.20
25718;DHT22;13574;52.040;5.692;2023-07-08T04:32:07;20.90;93.20
25718;DHT22;13574;52.040;5.692;2023-07-08T04:34:33;20.80;93.50
25718;DHT22;13574;52.040;5.692;2023-07-08T04:36:58;20.90;93.60
25718;DHT22;13574;52.040;5.692;2023-07-08T04:39:24;21.00;93.20
25718;DHT22;13574;52.040;5.692;2023-07-08T04:41:50;21.10;93.30
25718;DHT22;13574;52.040;5.692;2023-07-08T04:44:16;20.90;93.40
25718;DHT22;13574;52.040;5.692;2023-07-08T04:47:11;21.20;93.40
25718;DHT22;13574;52.040;5.692;2023-07-08T04:49:41;21.20;93.30
25718;DHT22;13574;52.040;5.692;2023-07-08T04:52:09;21.30;93.30
25718;DHT22;13574;52.040;5.692;2023-07-08T04:54:35;21.30;93.80
25718;DHT22;13574;52.040;5.692;2023-07-08T04:57:01;21.00;93.60
25718;DHT22;13574;52.040;5.692;2023-07-08T04:59:32;21.00;93.60
25718;DHT22;13574;52.040;5.692;2023-07-08T05:02:00;21.00;93.90
25718;DHT22;13574;52.040;5.692;2023-07-08T05:04:51;21.10;93.90
25718;DHT22;13574;52.040;5.692;2023-07-08T05:07:29;20.90;94.00
25718;DHT22;13574;52.040;5.692;2023-07-08T05:10:26;21.00;94.10
25718;DHT22;13574;52.040;5.692;2023-07-08T05:13:13;21.20;93.90
25718;DHT22;13574;52.040;5.692;2023-07-08T05:15:41;21.50;93.70
25718;DHT22;13574;52.040;5.692;2023-07-08T05:18:17;21.40;93.80
25718;DHT22;13574;52.040;5.692;2023-07-08T05:24:27;21.60;93.80
25718;DHT22;13574;52.040;5.692;2023-07-08T05:27:03;21.80;93.40
25718;DHT22;13574;52.040;5.692;2023-07-08T05:29:29;21.90;93.40
25718;DHT22;13574;52.040;5.692;2023-07-08T05:32:04;21.80;93.40
25718;DHT22;13574;52.040;5.692;2023-07-08T05:34:37;21.90;93.10
25718;DHT22;13574;52.040;5.692;2023-07-08T05:37:03;22.20;93.10
25718;DHT22;13574;52.040;5.692;2023-07-08T05:39:32;22.30;93.00
25718;DHT22;13574;52.040;5.692;2023-07-08T05:41:57;22.20;92.50
25718;DHT22;13574;52.040;5.692;2023-07-08T05:44:23;22.20;92.80
25718;DHT22;13574;52.040;5.692;2023-07-08T05:46:59;22.30;92.50
25718;DHT22;13574;52.040;5.692;2023-07-08T05:49:29;22.10;92.50
25718;DHT22;13574;52.040;5.692;2023-07-08T05:51:57;22.30;92.50
25718;DHT22;13574;52.040;5.692;2023-07-08T05:54:34;22.60;92.30
25718;DHT22;13574;52.040;5.692;2023-07-08T05:57:05;22.40;92.40
25718;DHT22;13574;52.040;5.692;2023-07-08T05:59:35;22.80;92.00
25718;DHT22;13574;52.040;5.692;2023-07-08T06:02:02;22.80;92.00
25718;DHT22;13574;52.040;5.692;2023-07-08T06:04:28;23.00;91.60
25718;DHT22;13574;52.040;5.692;2023-07-08T06:06:53;23.10;91.40
25718;DHT22;13574;52.040;5.692;2023-07-08T06:09:19;23.10;91.10
25718;DHT22;13574;52.040;5.692;2023-07-08T06:11:45;23.10;91.40
25718;DHT22;13574;52.040;5.692;2023-07-08T06:14:10;23.30;91.10
25718;DHT22;13574;52.040;5.692;2023-07-08T06:16:38;23.80;90.70
25718;DHT22;13574;52.040;5.692;2023-07-08T06:19:10;24.60;89.90
25718;DHT22;13574;52.040;5.692;2023-07-08T06:21:36;25.60;86.90
25718;DHT22;13574;52.040;5.692;2023-07-08T06:24:01;25.70;86.00
25718;DHT22;13574;52.040;5.692;2023-07-08T06:26:27;26.00;85.50
25718;DHT22;13574;52.040;5.692;2023-07-08T06:28:53;26.20;85.70
25718;DHT22;13574;52.040;5.692;2023-07-08T06:31:18;26.20;85.00
25718;DHT22;13574;52.040;5.692;2023-07-08T06:33:44;25.80;86.10
25718;DHT22;13574;52.040;5.692;2023-07-08T06:36:10;25.70;85.80
25718;DHT22;13574;52.040;5.692;2023-07-08T06:38:35;25.80;86.30
25718;DHT22;13574;52.040;5.692;2023-07-08T06:41:01;25.60;86.60
25718;DHT22;13574;52.040;5.692;2023-07-08T06:43:27;25.80;86.40
25718;DHT22;13574;52.040;5.692;2023-07-08T06:45:52;25.80;86.20
25718;DHT22;13574;52.040;5.692;2023-07-08T06:48:18;26.30;86.20
25718;DHT22;13574;52.040;5.692;2023-07-08T06:50:49;27.30;85.00
25718;DHT22;13574;52.040;5.692;2023-07-08T06:53:17;28.00;82.50
25718;DHT22;13574;52.040;5.692;2023-07-08T06:55:45;27.70;81.60
25718;DHT22;13574;52.040;5.692;2023-07-08T06:58:11;28.10;81.80
25718;DHT22;13574;52.040;5.692;2023-07-08T07:00:55;28.70;80.40
25718;DHT22;13574;52.040;5.692;2023-07-08T07:03:21;30.00;77.70
25718;DHT22;13574;52.040;5.692;2023-07-08T07:09:11;33.70;71.30
25718;DHT22;13574;52.040;5.692;2023-07-08T07:11:36;34.50;68.50
25718;DHT22;13574;52.040;5.692;2023-07-08T07:14:02;33.70;68.70
25718;DHT22;13574;52.040;5.692;2023-07-08T07:16:28;34.40;67.40
25718;DHT22;13574;52.040;5.692;2023-07-08T07:18:53;35.30;65.80
25718;DHT22;13574;52.040;5.692;2023-07-08T07:21:19;36.70;63.90
25718;DHT22;13574;52.040;5.692;2023-07-08T07:23:45;38.60;62.20
25718;DHT22;13574;52.040;5.692;2023-07-08T07:26:11;40.80;59.40
25718;DHT22;13574;52.040;5.692;2023-07-08T07:28:36;41.00;56.00
25718;DHT22;13574;52.040;5.692;2023-07-08T07:31:03;41.00;55.90
25718;DHT22;13574;52.040;5.692;2023-07-08T07:33:31;41.00;55.70
25718;DHT22;13574;52.040;5.692;2023-07-08T07:35:57;42.00;55.50
25718;DHT22;13574;52.040;5.692;2023-07-08T07:38:22;43.00;54.60
25718;DHT22;13574;52.040;5.692;2023-07-08T07:40:55;43.70;53.80
25718;DHT22;13574;52.040;5.692;2023-07-08T07:43:22;44.40;53.40
25718;DHT22;13574;52.040;5.692;2023-07-08T07:45:53;44.60;52.20
25718;DHT22;13574;52.040;5.692;2023-07-08T07:48:22;44.80;52.10
25718;DHT22;13574;52.040;5.692;2023-07-08T07:50:50;45.00;51.30
25718;DHT22;13574;52.040;5.692;2023-07-08T07:53:17;45.40;50.80
25718;DHT22;13574;52.040;5.692;2023-07-08T07:55:43;45.70;50.30
25718;DHT22;13574;52.040;5.692;2023-07-08T07:58:09;45.00;50.70
25718;DHT22;13574;52.040;5.692;2023-07-08T08:00:37;45.30;50.40
25718;DHT22;13574;52.040;5.692;2023-07-08T08:03:03;45.70;49.90
25718;DHT22;13574;52.040;5.692;2023-07-08T08:05:29;45.60;49.30
25718;DHT22;13574;52.040;5.692;2023-07-08T08:07:55;45.40;49.60
25718;DHT22;13574;52.040;5.692;2023-07-08T08:10:23;45.60;49.40
25718;DHT22;13574;52.040;5.692;2023-07-08T08:12:49;44.10;50.40
25718;DHT22;13574;52.040;5.692;2023-07-08T08:15:16;43.60;50.70
25718;DHT22;13574;52.040;5.692;2023-07-08T08:17:43;44.20;51.10
25718;DHT22;13574;52.040;5.692;2023-07-08T08:20:13;45.70;50.50
25718;DHT22;13574;52.040;5.692;2023-07-08T08:22:38;45.80;49.70
25718;DHT22;13574;52.040;5.692;2023-07-08T08:25:04;46.50;51.10
25718;DHT22;13574;52.040;5.692;2023-07-08T08:27:30;46.50;48.50
25718;DHT22;13574;52.040;5.692;2023-07-08T08:29:56;45.60;49.00
25718;DHT22;13574;52.040;5.692;2023-07-08T08:32:21;46.30;49.80
25718;DHT22;13574;52.040;5.692;2023-07-08T08:34:50;47.20;49.70
25718;DHT22;13574;52.040;5.692;2023-07-08T08:37:15;47.60;48.00
25718;DHT22;13574;52.040;5.692;2023-07-08T08:39:41;47.70;50.20
25718;DHT22;13574;52.040;5.692;2023-07-08T08:42:19;49.00;49.50
25718;DHT22;13574;52.040;5.692;2023-07-08T08:44:45;49.80;47.00
25718;DHT22;13574;52.040;5.692;2023-07-08T08:52:31;47.70;48.40
25718;DHT22;13574;52.040;5.692;2023-07-08T08:54:57;47.90;48.40
25718;DHT22;13574;52.040;5.692;2023-07-08T09:00:03;48.20;48.10
25718;DHT22;13574;52.040;5.692;2023-07-08T09:02:41;48.40;48.00
25718;DHT22;13574;52.040;5.692;2023-07-08T09:05:11;48.00;48.30
25718;DHT22;13574;52.040;5.692;2023-07-08T09:10:49;48.20;48.30
25718;DHT22;13574;52.040;5.692;2023-07-08T09:13:25;48.60;48.00
25718;DHT22;13574;52.040;5.692;2023-07-08T09:16:00;48.90;48.40
25718;DHT22;13574;52.040;5.692;2023-07-08T09:18:45;49.10;47.50
25718;DHT22;13574;52.040;5.692;2023-07-08T09:21:23;49.20;48.80
25718;DHT22;13574;52.040;5.692;2023-07-08T09:23:53;50.00;49.00
25718;DHT22;13574;52.040;5.692;2023-07-08T09:26:22;51.10;48.30
25718;DHT22;13574;52.040;5.692;2023-07-08T09:28:52;52.00;47.20
25718;DHT22;13574;52.040;5.692;2023-07-08T09:31:37;52.50;47.10
25718;DHT22;13574;52.040;5.692;2023-07-08T09:34:06;53.40;46.20
25718;DHT22;13574;52.040;5.692;2023-07-08T09:36:32;53.90;46.40
25718;DHT22;13574;52.040;5.692;2023-07-08T09:39:00;53.60;45.00
25718;DHT22;13574;52.040;5.692;2023-07-08T09:41:34;52.20;45.20
25718;DHT22;13574;52.040;5.692;2023-07-08T09:46:45;50.90;49.00
25718;DHT22;13574;52.040;5.692;2023-07-08T09:49:17;51.50;46.70
25718;DHT22;13574;52.040;5.692;2023-07-08T09:51:45;51.90;48.40
25718;DHT22;13574;52.040;5.692;2023-07-08T09:54:10;52.70;46.90
25718;DHT22;13574;52.040;5.692;2023-07-08T09:56:41;53.20;47.80
25718;DHT22;13574;52.040;5.692;2023-07-08T09:59:12;53.30;46.20
25718;DHT22;13574;52.040;5.692;2023-07-08T10:01:39;53.40;46.00
25718;DHT22;13574;52.040;5.692;2023-07-08T10:04:06;52.90;45.50
25718;DHT22;13574;52.040;5.692;2023-07-08T10:06:33;52.70;46.70
25718;DHT22;13574;52.040;5.692;2023-07-08T10:09:05;52.70;46.10
25718;DHT22;13574;52.040;5.692;2023-07-08T10:11:44;52.20;45.30
25718;DHT22;13574;52.040;5.692;2023-07-08T10:14:33;51.30;47.00
25718;DHT22;13574;52.040;5.692;2023-07-08T10:17:01;50.90;47.00
25718;DHT22;13574;52.040;5.692;2023-07-08T10:19:27;51.10;46.30
25718;DHT22;13574;52.040;5.692;2023-07-08T10:28:03;52.40;47.40
25718;DHT22;13574;52.040;5.692;2023-07-08T10:30:44;53.00;46.50
25718;DHT22;13574;52.040;5.692;2023-07-08T10:33:33;52.50;46.20
25718;DHT22;13574;52.040;5.692;2023-07-08T10:44:39;52.70;46.90
25718;DHT22;13574;52.040;5.692;2023-07-08T10:47:34;53.50;46.20
25718;DHT22;13574;52.040;5.692;2023-07-08T10:58:04;50.60;44.80
25718;DHT22;13574;52.040;5.692;2023-07-08T11:06:20;50.80;44.90
25718;DHT22;13574;52.040;5.692;2023-07-08T11:08:55;49.80;45.80
25718;DHT22;13574;52.040;5.692;2023-07-08T11:14:04;47.50;47.80
25718;DHT22;13574;52.040;5.692;2023-07-08T11:16:40;46.50;47.70
25718;DHT22;13574;52.040;5.692;2023-07-08T11:19:18;45.70;49.20
25718;DHT22;13574;52.040;5.692;2023-07-08T11:21:47;44.70;50.40
25718;DHT22;13574;52.040;5.692;2023-07-08T11:26:45;42.70;51.70
25718;DHT22;13574;52.040;5.692;2023-07-08T11:30:16;42.10;52.40
25718;DHT22;13574;52.040;5.692;2023-07-08T11:32:15;41.30;53.50
25718;DHT22;13574;52.040;5.692;2023-07-08T11:34:43;40.70;54.10
25718;DHT22;13574;52.040;5.692;2023-07-08T11:37:11;40.50;55.60
25718;DHT22;13574;52.040;5.692;2023-07-08T11:39:45;40.30;54.50
25718;DHT22;13574;52.040;5.692;2023-07-08T11:45:14;39.10;58.00
25718;DHT22;13574;52.040;5.692;2023-07-08T11:47:44;38.80;56.60
25718;DHT22;13574;52.040;5.692;2023-07-08T11:50:30;38.40;56.60
25718;DHT22;13574;52.040;5.692;2023-07-08T11:53:08;37.60;58.10
25718;DHT22;13574;52.040;5.692;2023-07-08T11:58:08;36.60;59.50
25718;DHT22;13574;52.040;5.692;2023-07-08T12:00:34;36.40;59.60
25718;DHT22;13574;52.040;5.692;2023-07-08T12:03:18;36.30;60.90
25718;DHT22;13574;52.040;5.692;2023-07-08T12:05:44;36.30;59.90
25718;DHT22;13574;52.040;5.692;2023-07-08T12:08:14;36.30;60.30
25718;DHT22;13574;52.040;5.692;2023-07-08T12:10:46;36.30;61.40
25718;DHT22;13574;52.040;5.692;2023-07-08T12:13:18;36.30;61.70
25718;DHT22;13574;52.040;5.692;2023-07-08T12:15:45;36.70;61.80
25718;DHT22;13574;52.040;5.692;2023-07-08T12:20:56;36.40;62.10
25718;DHT22;13574;52.040;5.692;2023-07-08T12:23:24;36.60;61.00
25718;DHT22;13574;52.040;5.692;2023-07-08T12:25:51;36.40;63.20
25718;DHT22;13574;52.040;5.692;2023-07-08T12:28:17;36.40;61.00
25718;DHT22;13574;52.040;5.692;2023-07-08T12:30:45;36.00;62.70
25718;DHT22;13574;52.040;5.692;2023-07-08T12:33:17;36.10;61.30
25718;DHT22;13574;52.040;5.692;2023-07-08T12:35:44;35.90;62.10
25718;DHT22;13574;52.040;5.692;2023-07-08T12:40:40;35.70;63.10
25718;DHT22;13574;52.040;5.692;2023-07-08T12:43:09;35.60;63.60
25718;DHT22;13574;52.040;5.692;2023-07-08T12:45:35;35.60;64.40
25718;DHT22;13574;52.040;5.692;2023-07-08T12:48:01;35.80;64.00
25718;DHT22;13574;52.040;5.692;2023-07-08T12:50:27;35.80;63.90
25718;DHT22;13574;52.040;5.692;2023-07-08T12:52:52;35.80;63.40
25718;DHT22;13574;52.040;5.692;2023-07-08T12:55:18;35.70;62.80
25718;DHT22;13574;52.040;5.692;2023-07-08T12:57:46;35.40;63.10
25718;DHT22;13574;52.040;5.692;2023-07-08T13:00:21;35.30;63.00
25718;DHT22;13574;52.040;5.692;2023-07-08T13:02:54;35.10;63.30
25718;DHT22;13574;52.040;5.692;2023-07-08T13:05:22;35.10;64.00
25718;DHT22;13574;52.040;5.692;2023-07-08T13:07:47;35.20;64.30
25718;DHT22;13574;52.040;5.692;2023-07-08T13:10:24;35.40;63.40
25718;DHT22;13574;52.040;5.692;2023-07-08T13:12:55;35.60;62.70
25718;DHT22;13574;52.040;5.692;2023-07-08T13:15:31;35.80;62.70
25718;DHT22;13574;52.040;5.692;2023-07-08T13:17:59;35.80;61.20
25718;DHT22;13574;52.040;5.692;2023-07-08T13:20:25;35.80;60.00
25718;DHT22;13574;52.040;5.692;2023-07-08T13:22:55;35.50;60.70
25718;DHT22;13574;52.040;5.692;2023-07-08T13:25:28;35.30;61.40
25718;DHT22;13574;52.040;5.692;2023-07-08T13:27:59;35.70;60.60
25718;DHT22;13574;52.040;5.692;2023-07-08T13:30:27;35.80;61.40
25718;DHT22;13574;52.040;5.692;2023-07-08T13:32:58;35.80;59.80
25718;DHT22;13574;52.040;5.692;2023-07-08T13:35:27;35.80;58.80
25718;DHT22;13574;52.040;5.692;2023-07-08T13:37:55;35.60;60.00
25718;DHT22;13574;52.040;5.692;2023-07-08T13:40:21;35.60;60.00
25718;DHT22;13574;52.040;5.692;2023-07-08T13:42:49;35.70;59.90
25718;DHT22;13574;52.040;5.692;2023-07-08T13:48:02;35.80;59.40
25718;DHT22;13574;52.040;5.692;2023-07-08T13:50:37;35.80;59.60
25718;DHT22;13574;52.040;5.692;2023-07-08T13:53:16;35.70;58.90
25718;DHT22;13574;52.040;5.692;2023-07-08T13:55:41;35.50;59.40
25718;DHT22;13574;52.040;5.692;2023-07-08T13:58:15;35.40;58.90
25718;DHT22;13574;52.040;5.692;2023-07-08T14:00:41;35.50;59.20
25718;DHT22;13574;52.040;5.692;2023-07-08T14:03:11;35.70;59.90
25718;DHT22;13574;52.040;5.692;2023-07-08T14:05:38;35.90;60.90
25718;DHT22;13574;52.040;5.692;2023-07-08T14:08:13;36.00;59.40
25718;DHT22;13574;52.040;5.692;2023-07-08T14:10:39;36.20;59.50
25718;DHT22;13574;52.040;5.692;2023-07-08T14:13:04;36.40;58.00
25718;DHT22;13574;52.040;5.692;2023-07-08T14:15:30;36.30;59.50
25718;DHT22;13574;52.040;5.692;2023-07-08T14:17:59;36.30;58.90
25718;DHT22;13574;52.040;5.692;2023-07-08T14:20:26;36.20;60.80
25718;DHT22;13574;52.040;5.692;2023-07-08T14:22:55;36.20;59.10
25718;DHT22;13574;52.040;5.692;2023-07-08T14:25:21;36.20;58.90
25718;DHT22;13574;52.040;5.692;2023-07-08T14:27:52;36.20;60.20
25718;DHT22;13574;52.040;5.692;2023-07-08T14:30:19;36.20;60.20
25718;DHT22;13574;52.040;5.692;2023-07-08T14:32:45;36.00;60.40
25718;DHT22;13574;52.040;5.692;2023-07-08T14:37:37;35.90;61.40
25718;DHT22;13574;52.040;5.692;2023-07-08T14:40:19;35.90;60.70
25718;DHT22;13574;52.040;5.692;2023-07-08T14:42:45;36.00;60.20
25718;DHT22;13574;52.040;5.692;2023-07-08T14:45:11;36.10;60.60
25718;DHT22;13574;52.040;5.692;2023-07-08T14:47:36;36.20;60.00
25718;DHT22;13574;52.040;5.692;2023-07-08T14:50:22;36.00;59.30
25718;DHT22;13574;52.040;5.692;2023-07-08T14:52:48;35.80;59.60
25718;DHT22;13574;52.040;5.692;2023-07-08T14:55:14;35.90;59.50
25718;DHT22;13574;52.040;5.692;2023-07-08T14:57:47;35.80;59.40
25718;DHT22;13574;52.040;5.692;2023-07-08T15:00:16;35.90;59.70
25718;DHT22;13574;52.040;5.692;2023-07-08T15:02:43;35.80;60.00
25718;DHT22;13574;52.040;5.692;2023-07-08T15:05:28;35.90;59.80
25718;DHT22;13574;52.040;5.692;2023-07-08T15:07:56;35.80;59.90
25718;DHT22;13574;52.040;5.692;2023-07-08T15:10:29;35.80;60.20
25718;DHT22;13574;52.040;5.692;2023-07-08T15:12:57;35.90;60.50
25718;DHT22;13574;52.040;5.692;2023-07-08T15:15:30;36.00;61.00
25718;DHT22;13574;52.040;5.692;2023-07-08T15:17:57;35.90;60.80
25718;DHT22;13574;52.040;5.692;2023-07-08T15:20:24;36.00;61.10
25718;DHT22;13574;52.040;5.692;2023-07-08T15:22:50;36.10;61.20
25718;DHT22;13574;52.040;5.692;2023-07-08T15:25:17;36.30;59.70
25718;DHT22;13574;52.040;5.692;2023-07-08T15:27:50;36.30;59.60
25718;DHT22;13574;52.040;5.692;2023-07-08T15:30:24;36.20;59.80
25718;DHT22;13574;52.040;5.692;2023-07-08T15:32:51;36.40;60.00
25718;DHT22;13574;52.040;5.692;2023-07-08T15:35:18;36.20;60.00
25718;DHT22;13574;52.040;5.692;2023-07-08T15:37:44;36.30;59.90
25718;DHT22;13574;52.040;5.692;2023-07-08T15:40:15;36.20;59.80
25718;DHT22;13574;52.040;5.692;2023-07-08T15:42:41;36.20;60.10
25718;DHT22;13574;52.040;5.692;2023-07-08T15:45:23;36.20;59.70
25718;DHT22;13574;52.040;5.692;2023-07-08T15:47:49;36.20;60.50
25718;DHT22;13574;52.040;5.692;2023-07-08T15:50:21;36.30;60.00
25718;DHT22;13574;52.040;5.692;2023-07-08T15:52:47;36.40;60.20
25718;DHT22;13574;52.040;5.692;2023-07-08T15:55:14;36.40;59.50
25718;DHT22;13574;52.040;5.692;2023-07-08T15:57:49;36.40;59.80
25718;DHT22;13574;52.040;5.692;2023-07-08T16:00:19;36.20;59.40
25718;DHT22;13574;52.040;5.692;2023-07-08T16:02:51;36.30;59.60
25718;DHT22;13574;52.040;5.692;2023-07-08T16:05:18;36.30;60.20
25718;DHT22;13574;52.040;5.692;2023-07-08T16:07:49;36.40;60.50
25718;DHT22;13574;52.040;5.692;2023-07-08T16:10:15;36.40;59.60
25718;DHT22;13574;52.040;5.692;2023-07-08T16:12:42;36.40;59.70
25718;DHT22;13574;52.040;5.692;2023-07-08T16:15:13;36.40;59.40
25718;DHT22;13574;52.040;5.692;2023-07-08T16:17:40;36.50;60.10
25718;DHT22;13574;52.040;5.692;2023-07-08T16:20:17;36.40;59.70
25718;DHT22;13574;52.040;5.692;2023-07-08T16:22:44;36.50;59.60
25718;DHT22;13574;52.040;5.692;2023-07-08T16:25:21;36.50;59.50
25718;DHT22;13574;52.040;5.692;2023-07-08T16:27:50;36.40;59.80
25718;DHT22;13574;52.040;5.692;2023-07-08T16:30:20;36.50;59.60
25718;DHT22;13574;52.040;5.692;2023-07-08T16:32:47;36.60;60.00
25718;DHT22;13574;52.040;5.692;2023-07-08T16:35:16;36.60;60.50
25718;DHT22;13574;52.040;5.692;2023-07-08T16:37:43;36.60;60.70
25718;DHT22;13574;52.040;5.692;2023-07-08T16:40:21;36.70;59.60
25718;DHT22;13574;52.040;5.692;2023-07-08T16:42:49;36.60;59.80
25718;DHT22;13574;52.040;5.692;2023-07-08T16:45:17;36.50;60.50
25718;DHT22;13574;52.040;5.692;2023-07-08T16:47:45;36.50;60.20
25718;DHT22;13574;52.040;5.692;2023-07-08T16:50:12;36.60;60.20
25718;DHT22;13574;52.040;5.692;2023-07-08T16:52:38;36.60;62.10
25718;DHT22;13574;52.040;5.692;2023-07-08T16:55:16;36.50;65.10
25718;DHT22;13574;52.040;5.692;2023-07-08T16:57:42;36.50;65.90
25718;DHT22;13574;52.040;5.692;2023-07-08T17:00:17;36.50;66.20
25718;DHT22;13574;52.040;5.692;2023-07-08T17:02:45;36.40;66.70
25718;DHT22;13574;52.040;5.692;2023-07-08T17:05:23;36.20;65.40